createdAt,value
2023-02-09T00:01:27.425Z,-1.00
2023-02-09T00:03:55.252Z,-1.00
2023-02-09T00:06:24.549Z,-1.00
2023-02-09T00:08:52.387Z,-1.00
2023-02-09T00:11:44.759Z,-1.10
2023-02-09T00:14:12.358Z,-1.10
2023-02-09T00:16:40.864Z,-1.10
2023-02-09T00:19:08.741Z,-1.10
2023-02-09T00:21:37.128Z,-1.10
2023-02-09T00:24:05.852Z,-1.10
2023-02-09T00:26:35.165Z,-1.10
2023-02-09T00:29:03.081Z,-1.10
2023-02-09T00:31:30.935Z,-1.10
2023-02-09T00:33:58.716Z,-1.10
2023-02-09T00:36:26.643Z,-1.20
2023-02-09T00:38:54.465Z,-1.20
2023-02-09T00:41:42.555Z,-1.20
2023-02-09T00:44:12.494Z,-1.20
2023-02-09T00:46:40.325Z,-1.20
2023-02-09T00:49:08.199Z,-1.20
2023-02-09T00:51:36.370Z,-1.20
2023-02-09T00:54:04.408Z,-1.20
2023-02-09T00:56:32.251Z,-1.20
2023-02-09T00:59:00.016Z,-1.20
2023-02-09T01:01:29.167Z,-1.20
2023-02-09T01:03:57.634Z,-1.20
2023-02-09T01:06:25.359Z,-1.20
2023-02-09T01:08:53.079Z,-1.20
2023-02-09T01:11:21.153Z,-1.20
2023-02-09T01:13:48.933Z,-1.20
2023-02-09T01:16:18.502Z,-1.20
2023-02-09T01:18:47.593Z,-1.20
2023-02-09T01:21:17.447Z,-1.20
2023-02-09T01:23:46.201Z,-1.30
2023-02-09T01:26:15.322Z,-1.30
2023-02-09T01:28:43.313Z,-1.30
2023-02-09T01:31:21.056Z,-1.30
2023-02-09T01:33:50.725Z,-1.30
2023-02-09T01:36:18.542Z,-1.30
2023-02-09T01:38:46.514Z,-1.30
2023-02-09T01:41:14.617Z,-1.30
2023-02-09T01:43:51.145Z,-1.30
2023-02-09T01:46:19.042Z,-1.30
2023-02-09T01:48:48.709Z,-1.30
2023-02-09T01:51:18.397Z,-1.40
2023-02-09T01:53:46.148Z,-1.40
2023-02-09T01:56:19.283Z,-1.40
2023-02-09T01:58:47.769Z,-1.40
2023-02-09T02:01:16.136Z,-1.40
2023-02-09T02:03:44.557Z,-1.40
2023-02-09T02:06:15.951Z,-1.40
2023-02-09T02:08:52.221Z,-1.50
2023-02-09T02:11:20.569Z,-1.50
2023-02-09T02:13:48.580Z,-1.50
2023-02-09T02:16:32.556Z,-1.50
2023-02-09T02:19:22.568Z,-1.50
2023-02-09T02:22:36.224Z,-1.50
2023-02-09T02:25:33.322Z,-1.60
2023-02-09T02:28:17.429Z,-1.60
2023-02-09T02:31:00.229Z,-1.60
2023-02-09T02:33:39.996Z,-1.60
2023-02-09T02:36:24.148Z,-1.60
2023-02-09T02:38:58.157Z,-1.60
2023-02-09T02:41:52.518Z,-1.60
2023-02-09T02:44:20.487Z,-1.70
2023-02-09T02:46:52.199Z,-1.70
2023-02-09T02:49:27.416Z,-1.70
2023-02-09T02:52:00.148Z,-1.80
2023-02-09T02:54:32.341Z,-1.80
2023-02-09T02:57:03.676Z,-1.70
2023-02-09T02:59:33.817Z,-1.80
2023-02-09T03:02:06.214Z,-1.80
2023-02-09T03:04:37.986Z,-1.80
2023-02-09T03:07:06.125Z,-1.80
2023-02-09T03:09:33.974Z,-1.90
2023-02-09T03:12:11.328Z,-1.90
2023-02-09T03:14:44.218Z,-1.90
2023-02-09T03:17:25.048Z,-1.90
2023-02-09T03:19:59.977Z,-1.90
2023-02-09T03:22:31.255Z,-1.90
2023-02-09T03:25:03.348Z,-1.90
2023-02-09T03:27:36.849Z,-1.90
2023-02-09T03:30:06.991Z,-1.90
2023-02-09T03:32:38.727Z,-2.00
2023-02-09T03:35:11.203Z,-2.00
2023-02-09T03:37:38.951Z,-2.00
2023-02-09T03:40:07.637Z,-2.00
2023-02-09T03:42:35.524Z,-2.00
2023-02-09T03:45:03.289Z,-2.00
2023-02-09T03:47:31.434Z,-2.00
2023-02-09T03:49:59.276Z,-2.00
2023-02-09T03:52:30.863Z,-2.10
2023-02-09T03:54:58.568Z,-2.10
2023-02-09T03:57:26.290Z,-2.10
2023-02-09T03:59:54.018Z,-2.10
2023-02-09T04:02:21.766Z,-2.20
2023-02-09T04:04:49.489Z,-2.20
2023-02-09T04:07:17.429Z,-2.20
2023-02-09T04:09:46.516Z,-2.20
2023-02-09T04:12:14.374Z,-2.20
2023-02-09T04:14:42.068Z,-2.20
2023-02-09T04:17:09.824Z,-2.20
2023-02-09T04:19:37.525Z,-2.30
2023-02-09T04:22:05.233Z,-2.30
2023-02-09T04:24:32.949Z,-2.30
2023-02-09T04:27:02.119Z,-2.30
2023-02-09T04:29:29.854Z,-2.40
2023-02-09T04:31:57.807Z,-2.40
2023-02-09T04:34:25.664Z,-2.40
2023-02-09T04:36:53.394Z,-2.40
2023-02-09T04:39:21.109Z,-2.40
2023-02-09T04:41:48.867Z,-2.40
2023-02-09T04:44:17.933Z,-2.40
2023-02-09T04:46:45.851Z,-2.40
2023-02-09T04:49:13.751Z,-2.50
2023-02-09T04:51:41.509Z,-2.50
2023-02-09T04:54:09.253Z,-2.50
2023-02-09T04:56:38.615Z,-2.50
2023-02-09T04:59:20.428Z,-2.60
2023-02-09T05:01:49.461Z,-2.60
2023-02-09T05:04:17.184Z,-2.60
2023-02-09T05:06:44.909Z,-2.60
2023-02-09T05:09:12.616Z,-2.60
2023-02-09T05:11:40.307Z,-2.60
2023-02-09T05:14:08.041Z,-2.60
2023-02-09T05:16:37.610Z,-2.70
2023-02-09T05:19:07.919Z,-2.70
2023-02-09T05:21:35.616Z,-2.70
2023-02-09T05:24:03.354Z,-2.70
2023-02-09T05:26:31.055Z,-2.70
2023-02-09T05:28:58.771Z,-2.70
2023-02-09T05:31:26.562Z,-2.80
2023-02-09T05:33:54.351Z,-2.80
2023-02-09T05:36:23.520Z,-2.80
2023-02-09T05:38:51.224Z,-2.80
2023-02-09T05:41:32.913Z,-2.80
2023-02-09T05:44:00.698Z,-2.80
2023-02-09T05:46:28.468Z,-2.80
2023-02-09T05:48:56.470Z,-2.80
2023-02-09T05:51:25.496Z,-2.80
2023-02-09T05:53:54.275Z,-2.80
2023-02-09T05:56:22.517Z,-2.80
2023-02-09T05:58:50.208Z,-2.80
2023-02-09T06:01:17.964Z,-2.90
2023-02-09T06:03:45.828Z,-2.90
2023-02-09T06:06:13.569Z,-2.90
2023-02-09T06:08:42.745Z,-2.90
2023-02-09T06:11:10.494Z,-2.90
2023-02-09T06:13:38.433Z,-2.90
2023-02-09T06:16:06.625Z,-3.00
2023-02-09T06:18:34.417Z,-3.00
2023-02-09T06:21:02.135Z,-3.00
2023-02-09T06:23:29.839Z,-3.00
2023-02-09T06:25:58.928Z,-3.00
2023-02-09T06:28:26.671Z,-3.00
2023-02-09T06:30:55.103Z,-3.10
2023-02-09T06:33:22.887Z,-3.10
2023-02-09T06:35:52.344Z,-3.10
2023-02-09T06:38:20.412Z,-3.10
2023-02-09T06:40:48.369Z,-3.20
2023-02-09T06:43:17.647Z,-3.20
2023-02-09T06:45:45.566Z,-3.20
2023-02-09T06:48:13.334Z,-3.20
2023-02-09T06:50:41.279Z,-3.30
2023-02-09T06:53:09.116Z,-3.30
2023-02-09T06:55:36.857Z,-3.30
2023-02-09T06:58:04.965Z,-3.30
2023-02-09T07:00:34.054Z,-3.30
2023-02-09T07:40:50.132Z,-2.80
2023-02-09T07:43:17.981Z,-2.70
2023-02-09T07:45:46.056Z,-2.60
2023-02-09T07:48:13.994Z,-2.60
2023-02-09T07:50:49.535Z,-2.60
2023-02-09T07:53:17.239Z,-2.50
2023-02-09T07:55:45.319Z,-2.50
2023-02-09T07:58:14.730Z,-2.40
2023-02-09T08:00:43.393Z,-2.40
2023-02-09T08:03:11.390Z,-2.40
2023-02-09T08:05:49.197Z,-2.30
2023-02-09T08:08:17.058Z,-2.30
2023-02-09T08:10:45.137Z,-2.20
2023-02-09T08:13:14.812Z,-2.10
2023-02-09T08:15:46.185Z,-2.10
2023-02-09T08:18:16.634Z,-2.00
2023-02-09T08:20:47.048Z,-2.00
2023-02-09T08:23:21.336Z,-1.90
2023-02-09T08:25:51.460Z,-1.90
2023-02-09T08:28:19.805Z,-1.80
2023-02-09T08:30:48.634Z,-1.80
2023-02-09T08:33:17.014Z,-1.70
2023-02-09T08:35:46.564Z,-1.70
2023-02-09T08:38:14.685Z,-1.60
2023-02-09T08:40:44.064Z,-1.60
2023-02-09T08:43:12.371Z,-1.50
2023-02-09T08:45:41.797Z,-1.50
2023-02-09T08:48:10.372Z,-1.40
2023-02-09T08:50:38.903Z,-1.30
2023-02-09T08:53:08.359Z,-1.20
2023-02-09T08:55:39.032Z,-1.20
2023-02-09T08:58:07.627Z,-1.10
2023-02-09T09:00:35.355Z,-1.10
2023-02-09T09:03:05.951Z,-1.10
2023-02-09T09:05:34.986Z,-1.00
2023-02-09T09:08:02.741Z,-1.00
2023-02-09T09:10:32.031Z,-0.90
2023-02-09T09:13:00.004Z,-0.90
2023-02-09T09:15:27.702Z,-0.90
2023-02-09T09:17:55.401Z,-0.80
2023-02-09T09:20:23.258Z,-0.80
2023-02-09T09:22:51.170Z,-0.80
2023-02-09T09:25:19.199Z,-0.70
2023-02-09T09:27:48.226Z,-0.70
2023-02-09T09:30:15.935Z,-0.60
2023-02-09T09:32:43.683Z,-0.50
2023-02-09T09:35:11.415Z,-0.50
2023-02-09T09:37:39.149Z,-0.50
2023-02-09T09:40:07.521Z,-0.40
2023-02-09T09:42:38.801Z,-0.40
2023-02-09T09:45:13.769Z,-0.30
2023-02-09T09:47:43.459Z,-0.30
2023-02-09T09:50:20.770Z,-0.20
2023-02-09T09:52:52.569Z,-0.10
2023-02-09T09:55:25.345Z,-0.10
2023-02-09T09:57:54.644Z,-0.10
2023-02-09T10:00:27.563Z,0.00
2023-02-09T10:02:55.325Z,0.10
2023-02-09T10:05:25.280Z,0.10
2023-02-09T10:07:59.623Z,0.20
2023-02-09T10:10:39.019Z,0.30
2023-02-09T10:13:14.107Z,0.30
2023-02-09T10:15:47.650Z,0.40
2023-02-09T10:18:16.930Z,0.50
2023-02-09T10:20:48.786Z,0.50
2023-02-09T10:23:19.391Z,0.60
2023-02-09T10:25:59.703Z,0.70
2023-02-09T10:28:29.857Z,0.70
2023-02-09T10:31:01.890Z,0.90
2023-02-09T10:33:38.000Z,0.90
2023-02-09T10:36:08.616Z,0.90
2023-02-09T10:38:41.206Z,1.00
2023-02-09T10:41:11.347Z,1.10
2023-02-09T10:43:39.176Z,1.10
2023-02-09T10:46:13.898Z,1.20
2023-02-09T10:48:43.844Z,1.30
2023-02-09T10:51:15.917Z,1.40
2023-02-09T10:54:00.769Z,1.50
2023-02-09T10:56:34.684Z,1.60
2023-02-09T10:59:04.585Z,1.60
2023-02-09T11:01:41.827Z,1.70
2023-02-09T11:04:20.853Z,1.80
2023-02-09T11:06:53.692Z,1.90
2023-02-09T11:09:25.116Z,1.90
2023-02-09T11:11:53.430Z,2.00
2023-02-09T11:14:21.905Z,2.10
2023-02-09T11:17:26.182Z,2.20
2023-02-09T11:20:07.233Z,2.20
2023-02-09T11:22:54.362Z,2.30
2023-02-09T11:25:25.989Z,2.30
2023-02-09T11:28:10.652Z,2.40
2023-02-09T11:30:55.463Z,2.40
2023-02-09T11:33:31.932Z,2.50
2023-02-09T11:36:13.504Z,2.50
2023-02-09T11:38:48.706Z,2.60
2023-02-09T11:41:42.825Z,2.70
2023-02-09T11:44:18.548Z,2.70
2023-02-09T11:46:48.973Z,2.70
2023-02-09T11:49:22.267Z,2.80
2023-02-09T11:51:52.009Z,2.80
2023-02-09T11:54:23.269Z,2.90
2023-02-09T11:56:53.874Z,2.90
2023-02-09T11:59:27.363Z,3.00
2023-02-09T12:02:00.584Z,3.00
2023-02-09T12:04:38.844Z,3.00
2023-02-09T12:07:15.402Z,3.10
2023-02-09T12:09:51.911Z,3.10
2023-02-09T12:12:26.521Z,3.20
2023-02-09T12:15:14.551Z,3.20
2023-02-09T12:17:47.402Z,3.30
2023-02-09T12:20:32.282Z,3.30
2023-02-09T12:23:02.421Z,3.30
2023-02-09T12:25:52.968Z,3.40
2023-02-09T12:28:39.842Z,3.40
2023-02-09T12:31:23.308Z,3.50
2023-02-09T12:34:23.861Z,3.60
2023-02-09T12:37:27.395Z,3.60
2023-02-09T12:40:23.800Z,3.70
2023-02-09T12:43:29.091Z,3.70
2023-02-09T12:46:22.243Z,3.70
2023-02-09T12:48:52.603Z,3.80
2023-02-09T12:51:48.258Z,3.80
2023-02-09T12:54:34.571Z,3.80
2023-02-09T12:57:35.498Z,3.90
2023-02-09T13:00:32.652Z,3.90
2023-02-09T13:03:11.697Z,4.00
2023-02-09T13:05:45.741Z,4.10
2023-02-09T13:08:21.783Z,4.10
2023-02-09T13:11:00.213Z,4.20
2023-02-09T13:13:36.146Z,4.20
2023-02-09T13:16:32.305Z,4.20
2023-02-09T13:19:07.257Z,4.30
2023-02-09T13:21:43.021Z,4.30
2023-02-09T13:24:14.175Z,4.30
2023-02-09T13:26:51.412Z,4.30
2023-02-09T13:29:22.422Z,4.40
2023-02-09T13:31:59.739Z,4.40
2023-02-09T13:34:35.706Z,4.40
2023-02-09T13:37:21.126Z,4.40
2023-02-09T13:39:57.306Z,4.40
2023-02-09T13:42:29.236Z,4.40
2023-02-09T13:44:58.880Z,4.40
2023-02-09T13:47:27.430Z,4.50
2023-02-09T13:50:03.871Z,4.50
2023-02-09T13:52:38.424Z,4.50
2023-02-09T13:55:12.472Z,4.50
2023-02-09T13:57:43.478Z,4.50
2023-02-09T14:00:22.177Z,4.60
2023-02-09T14:02:54.180Z,4.60
2023-02-09T14:05:30.279Z,4.60
2023-02-09T14:07:58.475Z,4.60
2023-02-09T14:10:27.701Z,4.60
2023-02-09T14:13:00.985Z,4.70
2023-02-09T14:15:53.515Z,4.70
2023-02-09T14:18:34.365Z,4.70
2023-02-09T14:21:04.909Z,4.70
2023-02-09T14:23:35.053Z,4.70
2023-02-09T14:26:07.876Z,4.70
2023-02-09T14:28:38.228Z,4.70
2023-02-09T14:31:07.204Z,4.70
2023-02-09T14:33:37.955Z,4.70
2023-02-09T14:36:07.515Z,4.70
2023-02-09T14:38:37.636Z,4.80
2023-02-09T14:41:36.378Z,4.70
2023-02-09T14:44:20.163Z,4.70
2023-02-09T14:46:52.796Z,4.70
2023-02-09T14:49:21.455Z,4.70
2023-02-09T14:51:51.000Z,4.70
2023-02-09T14:54:27.544Z,4.60
2023-02-09T14:56:58.685Z,4.60
2023-02-09T14:59:28.475Z,4.60
2023-02-09T15:01:56.476Z,4.60
2023-02-09T15:04:24.211Z,4.50
2023-02-09T15:07:01.077Z,4.50
2023-02-09T15:09:35.690Z,4.50
2023-02-09T15:12:07.190Z,4.50
2023-02-09T15:14:43.564Z,4.50
2023-02-09T15:17:14.906Z,4.40
2023-02-09T15:19:42.975Z,4.40
2023-02-09T15:22:13.541Z,4.40
2023-02-09T15:24:41.689Z,4.40
2023-02-09T15:27:16.743Z,4.40
2023-02-09T15:29:45.874Z,4.30
2023-02-09T15:32:15.729Z,4.30
2023-02-09T15:34:43.856Z,4.30
2023-02-09T15:37:22.102Z,4.30
2023-02-09T15:39:51.561Z,4.20
2023-02-09T15:42:38.122Z,4.20
2023-02-09T15:45:40.425Z,4.20
2023-02-09T15:48:09.450Z,4.10
2023-02-09T15:50:40.023Z,4.10
2023-02-09T15:53:10.283Z,4.10
2023-02-09T15:55:38.796Z,4.00
2023-02-09T15:58:13.571Z,4.00
2023-02-09T16:00:42.819Z,4.00
2023-02-09T16:03:16.108Z,3.90
2023-02-09T16:05:44.258Z,3.80
2023-02-09T16:08:18.889Z,3.80
2023-02-09T16:10:47.907Z,3.70
2023-02-09T16:13:17.337Z,3.70
2023-02-09T16:15:47.158Z,3.60
2023-02-09T16:18:15.454Z,3.50
2023-02-09T16:20:47.007Z,3.50
2023-02-09T16:23:20.925Z,3.40
2023-02-09T16:25:50.491Z,3.30
2023-02-09T16:28:19.502Z,3.20
2023-02-09T16:30:54.071Z,3.10
2023-02-09T16:33:23.296Z,3.00
2023-02-09T16:35:54.506Z,2.90
2023-02-09T16:38:24.566Z,2.90
2023-02-09T16:40:52.931Z,2.80
2023-02-09T16:43:21.209Z,2.80
2023-02-09T16:46:02.477Z,2.70
2023-02-09T16:48:34.372Z,2.70
2023-02-09T16:51:02.291Z,2.60
2023-02-09T16:53:33.547Z,2.50
2023-02-09T16:56:01.952Z,2.50
2023-02-09T16:58:29.870Z,2.40
2023-02-09T17:00:58.364Z,2.30
2023-02-09T17:03:34.089Z,2.10
2023-02-09T17:06:02.912Z,2.10
2023-02-09T17:08:32.594Z,2.00
2023-02-09T17:11:01.872Z,2.00
2023-02-09T17:13:30.731Z,2.00
2023-02-09T17:16:01.584Z,1.90
2023-02-09T17:18:32.383Z,1.90
2023-02-09T17:21:03.324Z,1.90
2023-02-09T17:23:31.969Z,1.80
2023-02-09T17:26:00.196Z,1.80
2023-02-09T17:28:28.677Z,1.70
2023-02-09T17:30:58.698Z,1.70
2023-02-09T17:33:29.101Z,1.60
2023-02-09T17:36:24.551Z,1.60
2023-02-09T17:38:47.636Z,1.50
2023-02-09T17:41:17.467Z,1.50
2023-02-09T17:43:45.225Z,1.40
2023-02-09T17:46:13.371Z,1.30
2023-02-09T17:48:41.090Z,1.30
2023-02-09T17:51:14.935Z,1.20
2023-02-09T17:53:42.626Z,1.20
2023-02-09T17:56:11.730Z,1.10
2023-02-09T17:58:39.428Z,1.10
2023-02-09T18:01:20.970Z,1.00
2023-02-09T18:03:48.763Z,1.00
2023-02-09T18:06:19.613Z,0.90
2023-02-09T18:08:47.370Z,0.90
2023-02-09T18:11:17.261Z,0.90
2023-02-09T18:13:45.157Z,0.80
2023-02-09T18:16:13.742Z,0.80
2023-02-09T18:18:42.948Z,0.70
2023-02-09T18:21:14.352Z,0.70
2023-02-09T18:23:42.718Z,0.70
2023-02-09T18:26:10.516Z,0.60
2023-02-09T18:28:39.572Z,0.60
2023-02-09T18:31:08.219Z,0.50
2023-02-09T18:33:38.080Z,0.50
2023-02-09T18:36:07.467Z,0.40
2023-02-09T18:38:36.040Z,0.40
2023-02-09T18:41:03.830Z,0.40
2023-02-09T18:43:31.539Z,0.30
2023-02-09T18:46:01.057Z,0.30
2023-02-09T18:48:28.892Z,0.30
2023-02-09T18:50:56.600Z,0.30
2023-02-09T18:53:24.314Z,0.20
2023-02-09T18:55:53.552Z,0.20
2023-02-09T18:58:21.328Z,0.10
2023-02-09T19:00:49.052Z,0.10
2023-02-09T19:03:19.973Z,0.10
2023-02-09T19:05:48.723Z,0.10
2023-02-09T19:08:17.027Z,0.10
2023-02-09T19:10:44.959Z,0.10
2023-02-09T19:13:12.712Z,0.10
2023-02-09T19:15:41.187Z,0.20
2023-02-09T19:18:08.967Z,0.10
2023-02-09T19:20:38.206Z,0.10
2023-02-09T19:23:07.528Z,0.20
2023-02-09T19:25:35.419Z,0.20
2023-02-09T19:28:03.287Z,0.10
2023-02-09T19:30:31.038Z,0.10
2023-02-09T19:32:59.874Z,0.10
2023-02-09T19:35:29.185Z,0.10
2023-02-09T19:37:59.143Z,0.10
2023-02-09T19:40:36.066Z,0.10
2023-02-09T19:43:05.007Z,0.10
2023-02-09T19:45:37.250Z,0.10
2023-02-09T19:48:06.249Z,0.10
2023-02-09T19:50:34.162Z,0.10
2023-02-09T19:53:03.717Z,0.10
2023-02-09T19:55:31.645Z,0.10
2023-02-09T19:57:59.365Z,0.20
2023-02-09T20:00:27.207Z,0.20
2023-02-09T20:02:56.109Z,0.20
2023-02-09T20:05:23.818Z,0.20
2023-02-09T20:07:53.547Z,0.20
2023-02-09T20:10:23.850Z,0.20
2023-02-09T20:12:52.141Z,0.20
2023-02-09T20:15:19.973Z,0.20
2023-02-09T20:20:20.737Z,0.20
2023-02-09T20:22:50.090Z,0.20
2023-02-09T20:25:18.440Z,0.20
2023-02-09T20:27:49.948Z,0.30
2023-02-09T20:30:17.889Z,0.30
2023-02-09T20:32:45.619Z,0.30
2023-02-09T20:35:13.423Z,0.30
2023-02-09T20:37:41.167Z,0.30
2023-02-09T20:40:11.226Z,0.30
2023-02-09T20:42:56.423Z,0.30
2023-02-09T20:45:43.102Z,0.30
2023-02-09T20:48:10.847Z,0.30
2023-02-09T20:50:38.555Z,0.40
2023-02-09T20:53:07.531Z,0.40
2023-02-09T20:55:35.271Z,0.40
2023-02-09T20:58:02.984Z,0.40
2023-02-09T21:00:32.037Z,0.40
2023-02-09T21:02:59.876Z,0.40
2023-02-09T21:05:27.610Z,0.40
2023-02-09T21:07:55.465Z,0.40
2023-02-09T21:10:23.451Z,0.40
2023-02-09T21:12:51.188Z,0.40
2023-02-09T21:15:19.043Z,0.40
2023-02-09T21:17:48.901Z,0.40
2023-02-09T21:20:17.736Z,0.40
2023-02-09T21:22:45.805Z,0.40
2023-02-09T21:25:14.481Z,0.40
2023-02-09T21:27:42.211Z,0.50
2023-02-09T21:30:10.921Z,0.50
2023-02-09T21:32:39.124Z,0.50
2023-02-09T21:35:10.247Z,0.50
2023-02-09T21:37:39.241Z,0.50
2023-02-09T21:40:07.631Z,0.50
2023-02-09T21:42:36.852Z,0.50
2023-02-09T21:45:06.693Z,0.50
2023-02-09T21:47:37.760Z,0.50
2023-02-09T21:50:07.007Z,0.50
2023-02-09T21:52:36.153Z,0.50
2023-02-09T21:55:04.613Z,0.50
2023-02-09T21:57:32.343Z,0.60
2023-02-09T22:00:04.411Z,0.60
2023-02-09T22:02:32.150Z,0.60
2023-02-09T22:05:00.016Z,0.60
2023-02-09T22:07:27.793Z,0.60
2023-02-09T22:09:56.866Z,0.60
2023-02-09T22:12:24.572Z,0.60
2023-02-09T22:14:52.308Z,0.60
2023-02-09T22:17:20.045Z,0.60
2023-02-09T22:19:47.798Z,0.60
2023-02-09T22:22:15.508Z,0.60
2023-02-09T22:24:43.225Z,0.60
2023-02-09T22:27:12.304Z,0.70
2023-02-09T22:29:40.035Z,0.70
2023-02-09T22:32:07.761Z,0.70
2023-02-09T22:34:35.919Z,0.70
2023-02-09T22:37:04.192Z,0.70
2023-02-09T22:39:31.989Z,0.80
2023-02-09T22:42:00.926Z,0.80
2023-02-09T22:44:30.335Z,0.80
2023-02-09T22:46:58.329Z,0.80
2023-02-09T22:49:26.059Z,0.80
2023-02-09T22:51:53.800Z,0.80
2023-02-09T22:54:22.231Z,0.80
2023-02-09T22:56:50.180Z,0.80
2023-02-09T22:59:17.910Z,0.80
2023-02-09T23:01:48.618Z,0.80
2023-02-09T23:04:17.491Z,0.80
2023-02-09T23:06:45.353Z,0.80
2023-02-09T23:09:14.753Z,0.80
2023-02-09T23:11:44.226Z,0.80
2023-02-09T23:14:13.509Z,0.80
2023-02-09T23:16:43.213Z,0.80
2023-02-09T23:19:14.431Z,0.80
2023-02-09T23:21:43.718Z,0.80
2023-02-09T23:24:12.872Z,0.80
2023-02-09T23:26:41.305Z,0.80
2023-02-09T23:29:11.004Z,0.80
2023-02-09T23:31:39.355Z,0.80
2023-02-09T23:34:07.134Z,0.80
2023-02-09T23:36:36.683Z,0.80
2023-02-09T23:39:07.284Z,0.80
2023-02-09T23:41:35.720Z,0.80
2023-02-09T23:44:04.339Z,0.80
2023-02-09T23:46:32.369Z,0.80
2023-02-09T23:49:00.180Z,0.80
2023-02-09T23:51:29.740Z,0.80
2023-02-09T23:54:00.808Z,0.80
2023-02-09T23:56:31.647Z,0.80
2023-02-09T23:58:59.371Z,0.80
